Time;durP1;ratioP1;P1;durP2;ratioP2;P2;SDS_P1;SDS_P2;PMS_P1;PMS_P2;Temp;Humidity;BMP_temperature;BMP_pressure;BME280_temperature;BME280_humidity;BME280_pressure;Samples;Min_cycle;Max_cycle;Signal;HPM_P1;HPM_P2
2022/04/24 00:00:08;;;;;;;;;;;12.60;94.50;;;;;;4991759;28;19960;-89
2022/04/24 00:02:34;;;;;;;;;;;12.60;94.60;;;;;;4991740;28;19938;-89
2022/04/24 00:05:00;;;;;;;;;;;12.70;94.60;;;;;;4991627;28;19945;-89
2022/04/24 00:07:25;;;;;;;;;;;12.50;94.40;;;;;;4991038;28;19948;-89
2022/04/24 00:09:51;;;;;;;;;;;12.50;94.40;;;;;;4991635;28;20009;-89
2022/04/24 00:12:17;;;;;;;;;;;12.40;94.50;;;;;;4991627;28;20412;-89
2022/04/24 00:14:44;;;;;;;;;;;12.40;94.50;;;;;;4990284;28;19947;-89
2022/04/24 00:17:10;;;;;;;;;;;12.30;94.60;;;;;;4990771;28;19947;-89
2022/04/24 00:19:35;;;;;;;;;;;12.20;94.50;;;;;;4991056;28;20404;-89
2022/04/24 00:22:01;;;;;;;;;;;12.20;94.50;;;;;;4991483;28;20415;-89
2022/04/24 00:24:26;;;;;;;;;;;12.10;94.60;;;;;;4991413;28;20424;-89
2022/04/24 00:26:52;;;;;;;;;;;12.00;94.60;;;;;;4987734;28;19945;-90
2022/04/24 00:29:18;;;;;;;;;;;11.90;94.60;;;;;;4983018;28;19948;-89
2022/04/24 00:31:43;;;;;;;;;;;11.90;94.70;;;;;;4980721;28;19946;-89
2022/04/24 00:34:09;;;;;;;;;;;11.90;94.80;;;;;;4991320;28;20044;-89
2022/04/24 00:36:34;;;;;;;;;;;11.80;94.90;;;;;;4989793;28;19955;-89
2022/04/24 00:39:00;;;;;;;;;;;11.80;95.00;;;;;;4962927;28;20418;-89
2022/04/24 00:41:25;;;;;;;;;;;11.80;95.10;;;;;;4990981;28;19941;-89
2022/04/24 00:43:52;;;;;;;;;;;11.80;95.10;;;;;;4991182;28;19947;-89
2022/04/24 00:46:39;;;;;;;;;;;11.80;95.10;;;;;;4990784;28;19969;-89
2022/04/24 00:49:05;;;;;;;;;;;11.60;95.00;;;;;;4980269;28;19973;-89
2022/04/24 00:51:30;;;;;;;;;;;11.70;95.10;;;;;;4991014;28;20407;-89
2022/04/24 00:53:56;;;;;;;;;;;11.60;95.20;;;;;;4987866;28;20323;-89
2022/04/24 00:56:23;;;;;;;;;;;11.50;95.10;;;;;;4989521;28;19976;-89
2022/04/24 00:58:49;;;;;;;;;;;11.40;95.00;;;;;;4990677;28;19972;-88
2022/04/24 01:01:14;;;;;;;;;;;11.30;95.00;;;;;;4990930;28;19936;-89
2022/04/24 01:03:40;;;;;;;;;;;11.20;95.20;;;;;;4990221;28;20329;-89
2022/04/24 01:06:06;;;;;;;;;;;11.20;95.30;;;;;;4990862;28;20375;-89
2022/04/24 01:08:34;;;;;;;;;;;11.10;95.20;;;;;;4990446;28;20339;-89
2022/04/24 01:10:59;;;;;;;;;;;11.00;95.30;;;;;;4990862;28;19945;-89
2022/04/24 01:13:25;;;;;;;;;;;11.00;95.50;;;;;;4990115;28;19954;-89
2022/04/24 01:15:50;;;;;;;;;;;11.00;95.60;;;;;;4990113;28;20432;-89
2022/04/24 01:18:16;;;;;;;;;;;11.00;95.70;;;;;;4990516;28;20327;-89
2022/04/24 01:20:42;;;;;;;;;;;11.00;95.80;;;;;;4971548;28;19960;-89
2022/04/24 01:23:07;;;;;;;;;;;11.00;95.80;;;;;;4971180;28;19943;-89
2022/04/24 01:25:33;;;;;;;;;;;11.00;95.90;;;;;;4985864;28;19950;-89
2022/04/24 01:27:58;;;;;;;;;;;11.00;95.80;;;;;;4993548;28;19950;-89
2022/04/24 01:30:24;;;;;;;;;;;11.00;95.80;;;;;;4993691;28;19957;-89
2022/04/24 01:32:49;;;;;;;;;;;11.00;95.90;;;;;;4993847;28;19952;-89
2022/04/24 01:35:15;;;;;;;;;;;10.90;95.90;;;;;;4991446;28;19978;-89
2022/04/24 01:37:43;;;;;;;;;;;10.90;96.00;;;;;;4993262;28;19979;-89
2022/04/24 01:40:09;;;;;;;;;;;10.90;95.90;;;;;;4993892;28;19954;-89
2022/04/24 01:42:34;;;;;;;;;;;10.90;95.90;;;;;;4993463;28;19946;-89
2022/04/24 01:45:00;;;;;;;;;;;10.80;95.90;;;;;;4983544;28;19954;-89
2022/04/24 01:47:25;;;;;;;;;;;10.80;95.90;;;;;;4975015;28;19946;-89
2022/04/24 01:49:51;;;;;;;;;;;10.80;96.00;;;;;;4993566;28;19960;-89
2022/04/24 01:52:16;;;;;;;;;;;10.80;96.00;;;;;;4993675;28;19945;-89
2022/04/24 01:54:42;;;;;;;;;;;10.70;96.00;;;;;;4992981;28;19949;-89
2022/04/24 01:57:08;;;;;;;;;;;10.70;96.00;;;;;;4993557;28;20393;-90
2022/04/24 01:59:33;;;;;;;;;;;10.70;96.00;;;;;;4993333;28;19947;-89
2022/04/24 02:01:59;;;;;;;;;;;10.70;96.00;;;;;;4993276;28;19948;-89
2022/04/24 02:04:25;;;;;;;;;;;10.70;96.00;;;;;;4988610;28;20330;-89
2022/04/24 02:06:51;;;;;;;;;;;10.80;96.20;;;;;;4974082;28;19988;-89
2022/04/24 02:09:17;;;;;;;;;;;10.90;96.20;;;;;;4989332;28;19995;-89
2022/04/24 02:11:42;;;;;;;;;;;10.90;96.30;;;;;;4993383;28;19946;-89
2022/04/24 02:14:08;;;;;;;;;;;11.00;96.40;;;;;;4990727;28;20001;-89
2022/04/24 02:16:33;;;;;;;;;;;11.10;96.50;;;;;;4974139;28;19954;-89
2022/04/24 02:18:59;;;;;;;;;;;11.20;96.50;;;;;;4986329;28;20356;-89
2022/04/24 02:21:26;;;;;;;;;;;11.20;96.40;;;;;;4992697;28;20425;-89
2022/04/24 02:23:51;;;;;;;;;;;11.30;96.50;;;;;;4992950;28;20411;-89
2022/04/24 02:26:17;;;;;;;;;;;11.30;96.50;;;;;;4993235;28;20035;-89
2022/04/24 02:28:42;;;;;;;;;;;11.40;96.60;;;;;;4992849;28;19939;-89
2022/04/24 02:31:08;;;;;;;;;;;11.40;96.50;;;;;;4992440;28;19954;-89
2022/04/24 02:33:34;;;;;;;;;;;11.40;96.50;;;;;;4992797;28;20037;-89
2022/04/24 02:35:59;;;;;;;;;;;11.40;96.60;;;;;;4992884;28;20069;-89
2022/04/24 02:38:25;;;;;;;;;;;11.40;96.70;;;;;;4991425;28;19967;-89
2022/04/24 02:40:50;;;;;;;;;;;11.50;96.70;;;;;;4992947;28;19949;-89
2022/04/24 02:43:16;;;;;;;;;;;11.60;96.80;;;;;;4991963;28;19952;-89
2022/04/24 02:45:42;;;;;;;;;;;11.70;96.80;;;;;;4992913;28;19941;-89
2022/04/24 02:48:07;;;;;;;;;;;11.80;96.90;;;;;;4992607;28;19945;-89
2022/04/24 02:50:33;;;;;;;;;;;11.80;96.90;;;;;;4992811;28;19990;-89
2022/04/24 02:52:58;;;;;;;;;;;11.90;96.90;;;;;;4977201;28;19960;-89
2022/04/24 02:55:24;;;;;;;;;;;11.90;96.80;;;;;;4983182;28;19946;-89
2022/04/24 02:57:50;;;;;;;;;;;11.90;96.80;;;;;;4992502;28;19966;-89
2022/04/24 03:00:19;;;;;;;;;;;12.00;96.80;;;;;;4992404;28;19966;-89
2022/04/24 03:02:46;;;;;;;;;;;12.00;96.80;;;;;;4975238;28;19949;-89
2022/04/24 03:05:13;;;;;;;;;;;12.00;96.70;;;;;;4973162;28;19938;-89
2022/04/24 03:07:38;;;;;;;;;;;12.00;96.70;;;;;;4973064;28;19948;-89
2022/04/24 03:10:04;;;;;;;;;;;12.10;96.70;;;;;;4989732;28;19987;-89
2022/04/24 03:12:30;;;;;;;;;;;12.00;96.60;;;;;;4987133;28;20133;-89
2022/04/24 03:14:56;;;;;;;;;;;12.00;96.60;;;;;;4992205;28;19940;-89
2022/04/24 03:17:22;;;;;;;;;;;12.00;96.50;;;;;;4992702;28;20023;-89
2022/04/24 03:19:48;;;;;;;;;;;12.00;96.60;;;;;;4992119;28;19960;-89
2022/04/24 03:22:14;;;;;;;;;;;12.10;96.70;;;;;;4979485;28;19951;-89
2022/04/24 03:24:40;;;;;;;;;;;12.10;96.60;;;;;;4973125;28;19980;-89
2022/04/24 03:27:05;;;;;;;;;;;12.10;96.50;;;;;;4972851;28;19987;-89
2022/04/24 03:29:31;;;;;;;;;;;12.10;96.60;;;;;;4991510;28;20055;-89
2022/04/24 03:31:56;;;;;;;;;;;12.10;96.60;;;;;;4981685;28;20379;-89
2022/04/24 03:34:22;;;;;;;;;;;12.20;96.60;;;;;;4972745;28;20364;-89
2022/04/24 03:36:47;;;;;;;;;;;12.20;96.60;;;;;;4972552;28;19978;-89
2022/04/24 03:39:13;;;;;;;;;;;12.30;96.60;;;;;;4988441;28;19972;-89
2022/04/24 03:41:38;;;;;;;;;;;12.20;96.50;;;;;;4991397;28;20014;-89
2022/04/24 03:44:04;;;;;;;;;;;12.20;96.50;;;;;;4984111;28;19987;-89
2022/04/24 03:46:30;;;;;;;;;;;12.20;96.50;;;;;;4972535;28;19936;-89
2022/04/24 03:48:55;;;;;;;;;;;12.20;96.50;;;;;;4985841;28;19957;-89
2022/04/24 03:51:21;;;;;;;;;;;12.20;96.50;;;;;;4991303;28;19940;-89
2022/04/24 03:53:47;;;;;;;;;;;12.20;96.50;;;;;;4991897;28;19950;-89
2022/04/24 03:56:12;;;;;;;;;;;12.30;96.60;;;;;;4991848;28;20311;-89
2022/04/24 03:58:38;;;;;;;;;;;12.20;96.50;;;;;;4991531;28;20117;-89
2022/04/24 04:01:03;;;;;;;;;;;12.20;96.40;;;;;;4989137;28;19958;-89
2022/04/24 04:03:29;;;;;;;;;;;12.10;96.50;;;;;;4972290;28;19948;-89
2022/04/24 04:05:54;;;;;;;;;;;12.20;96.50;;;;;;4981006;28;19981;-89
2022/04/24 04:08:20;;;;;;;;;;;12.20;96.60;;;;;;4974273;28;20038;-89
2022/04/24 04:10:45;;;;;;;;;;;12.30;96.60;;;;;;4991488;28;19961;-89
2022/04/24 04:13:11;;;;;;;;;;;12.30;96.60;;;;;;4990571;28;19957;-89
2022/04/24 04:15:37;;;;;;;;;;;12.30;96.50;;;;;;4991548;28;19945;-89
2022/04/24 04:18:02;;;;;;;;;;;12.30;96.40;;;;;;4991464;28;20018;-89
2022/04/24 04:20:28;;;;;;;;;;;12.40;96.30;;;;;;4991512;28;20054;-88
2022/04/24 04:22:55;;;;;;;;;;;12.30;96.20;;;;;;4990550;28;20442;-89
2022/04/24 04:25:24;;;;;;;;;;;12.20;95.90;;;;;;4991446;28;20043;-88
2022/04/24 04:27:50;;;;;;;;;;;12.00;94.90;;;;;;4991097;28;19944;-89
2022/04/24 04:30:15;;;;;;;;;;;11.90;93.80;;;;;;4990697;28;20002;-89
2022/04/24 04:32:41;;;;;;;;;;;11.90;93.10;;;;;;4991222;28;19936;-90
2022/04/24 04:35:09;;;;;;;;;;;12.00;92.70;;;;;;4995252;23;19946;-89
2022/04/24 04:37:39;;;;;;;;;;;12.00;92.30;;;;;;4971167;28;20035;-89
2022/04/24 04:40:05;;;;;;;;;;;12.10;92.10;;;;;;4978290;28;19954;-88
2022/04/24 04:42:31;;;;;;;;;;;12.10;92.10;;;;;;4971785;28;19996;-89
2022/04/24 04:44:59;;;;;;;;;;;12.10;92.10;;;;;;4971469;28;19953;-89
2022/04/24 04:50:02;;;;;;;;;;;12.00;92.00;;;;;;5153911;27;19953;-89
2022/04/24 04:53:47;;;;;;;;;;;11.80;91.80;;;;;;5143341;27;19962;-88
2022/04/24 04:56:13;;;;;;;;;;;11.70;91.90;;;;;;5111064;28;20197;-88
2022/04/24 04:58:38;;;;;;;;;;;11.60;91.90;;;;;;5110898;28;19940;-88
2022/04/24 05:01:04;;;;;;;;;;;11.60;91.30;;;;;;5091580;28;20440;-89
2022/04/24 05:03:30;;;;;;;;;;;11.60;91.10;;;;;;5091589;28;20422;-89
2022/04/24 05:05:56;;;;;;;;;;;11.60;90.90;;;;;;5090494;28;19975;-89
2022/04/24 05:08:22;;;;;;;;;;;11.70;90.70;;;;;;5091483;28;19985;-89
2022/04/24 05:10:47;;;;;;;;;;;11.70;90.70;;;;;;5090341;28;19982;-89
2022/04/24 05:13:13;;;;;;;;;;;11.80;90.70;;;;;;5095815;28;19953;-89
2022/04/24 05:15:38;;;;;;;;;;;11.90;90.50;;;;;;5105046;28;20444;-88
2022/04/24 05:18:04;;;;;;;;;;;11.90;90.40;;;;;;5102953;28;19995;-89
2022/04/24 05:20:29;;;;;;;;;;;12.00;90.40;;;;;;5097853;28;19956;-90
2022/04/24 05:23:05;;;;;;;;;;;12.00;90.40;;;;;;5090359;28;19946;-88
2022/04/24 05:25:30;;;;;;;;;;;12.10;90.40;;;;;;5090147;28;19943;-90
2022/04/24 05:27:57;;;;;;;;;;;12.10;90.60;;;;;;5090401;28;20004;-89
2022/04/24 05:30:23;;;;;;;;;;;12.10;90.80;;;;;;5089808;28;20466;-89
2022/04/24 05:32:50;;;;;;;;;;;12.00;91.60;;;;;;5090420;28;19960;-89
2022/04/24 05:35:16;;;;;;;;;;;11.90;91.60;;;;;;5110301;28;20406;-89
2022/04/24 05:37:41;;;;;;;;;;;11.90;91.90;;;;;;5110264;28;19942;-89
2022/04/24 05:40:07;;;;;;;;;;;11.80;92.00;;;;;;5100736;28;19947;-89
2022/04/24 05:42:33;;;;;;;;;;;11.90;92.20;;;;;;5089832;28;19945;-89
2022/04/24 05:45:04;;;;;;;;;;;11.90;92.00;;;;;;5109691;28;20408;-89
2022/04/24 05:47:30;;;;;;;;;;;12.00;92.20;;;;;;5110075;28;19944;-89
2022/04/24 05:49:55;;;;;;;;;;;12.10;91.40;;;;;;5102588;28;20386;-89
2022/04/24 05:52:21;;;;;;;;;;;12.10;89.70;;;;;;5089407;28;20428;-89
2022/04/24 05:54:47;;;;;;;;;;;12.10;87.60;;;;;;5090587;28;19983;-89
2022/04/24 05:57:12;;;;;;;;;;;12.00;86.40;;;;;;5089529;28;20020;-89
2022/04/24 05:59:38;;;;;;;;;;;12.00;86.50;;;;;;5099530;28;19949;-89
2022/04/24 06:02:03;;;;;;;;;;;12.10;87.30;;;;;;5089450;28;19936;-89
2022/04/24 06:04:29;;;;;;;;;;;12.20;87.50;;;;;;5093846;28;19987;-89
2022/04/24 06:06:54;;;;;;;;;;;12.40;87.40;;;;;;5096154;28;19943;-89
2022/04/24 06:09:20;;;;;;;;;;;12.50;86.50;;;;;;5093806;28;19958;-89
2022/04/24 06:11:45;;;;;;;;;;;12.60;85.10;;;;;;5093949;28;19965;-89
2022/04/24 06:14:11;;;;;;;;;;;12.80;84.10;;;;;;5086756;28;20043;-89
2022/04/24 06:16:37;;;;;;;;;;;12.90;84.40;;;;;;5074358;28;19952;-89
2022/04/24 06:19:02;;;;;;;;;;;13.10;84.20;;;;;;5075597;28;19947;-89
2022/04/24 06:21:28;;;;;;;;;;;13.10;83.10;;;;;;5075487;28;20032;-89
2022/04/24 06:23:54;;;;;;;;;;;13.30;81.80;;;;;;5075528;28;20387;-89
2022/04/24 06:26:20;;;;;;;;;;;13.30;82.20;;;;;;5075486;28;20029;-89
2022/04/24 06:28:45;;;;;;;;;;;13.20;81.90;;;;;;5078925;28;20294;-89
2022/04/24 06:31:11;;;;;;;;;;;13.30;82.00;;;;;;5082466;28;20084;-89
2022/04/24 06:33:36;;;;;;;;;;;13.20;80.80;;;;;;5094204;28;20210;-89
2022/04/24 06:36:02;;;;;;;;;;;13.20;80.20;;;;;;5094091;28;19998;-89
2022/04/24 06:38:28;;;;;;;;;;;13.20;80.70;;;;;;5077375;28;20000;-89
2022/04/24 06:40:53;;;;;;;;;;;13.20;81.00;;;;;;5074928;28;19987;-88
2022/04/24 06:43:19;;;;;;;;;;;13.20;79.70;;;;;;5075202;28;19945;-89
2022/04/24 06:45:44;;;;;;;;;;;13.00;80.80;;;;;;5092588;28;20410;-89
2022/04/24 06:48:12;;;;;;;;;;;13.00;81.40;;;;;;5084160;28;19957;-88
2022/04/24 06:50:38;;;;;;;;;;;12.90;81.70;;;;;;5075094;28;20038;-88
2022/04/24 06:53:05;;;;;;;;;;;12.90;81.70;;;;;;5081965;28;20511;-88
2022/04/24 06:55:31;;;;;;;;;;;12.80;81.00;;;;;;5095414;28;19944;-88
2022/04/24 06:57:57;;;;;;;;;;;12.70;81.10;;;;;;5085876;28;19953;-89
2022/04/24 07:00:24;;;;;;;;;;;12.60;81.60;;;;;;5075881;28;19948;-89
2022/04/24 07:02:49;;;;;;;;;;;12.60;82.20;;;;;;5074550;28;20408;-88
2022/04/24 07:05:16;;;;;;;;;;;12.60;82.80;;;;;;5074737;28;19942;-89
2022/04/24 07:07:42;;;;;;;;;;;12.60;82.30;;;;;;5074713;28;20000;-88
2022/04/24 07:10:08;;;;;;;;;;;12.70;81.20;;;;;;5074713;28;20438;-89
2022/04/24 07:12:46;;;;;;;;;;;12.80;81.00;;;;;;5074294;28;19964;-88
2022/04/24 07:15:13;;;;;;;;;;;12.90;77.80;;;;;;5080817;28;20025;-89
2022/04/24 07:17:40;;;;;;;;;;;12.90;77.00;;;;;;5074462;28;19947;-88
2022/04/24 07:20:06;;;;;;;;;;;13.00;77.50;;;;;;5083852;28;19944;-89
2022/04/24 07:22:48;;;;;;;;;;;13.20;77.60;;;;;;5084381;28;20050;-88
2022/04/24 07:25:14;;;;;;;;;;;13.30;76.10;;;;;;5074310;28;20032;-88
2022/04/24 07:27:40;;;;;;;;;;;13.30;75.70;;;;;;5075588;28;19952;-89
2022/04/24 07:30:13;;;;;;;;;;;13.40;76.30;;;;;;5072587;28;20402;-89
2022/04/24 07:32:41;;;;;;;;;;;13.60;75.50;;;;;;5074054;28;20048;-88
2022/04/24 07:35:11;;;;;;;;;;;13.60;74.50;;;;;;5074196;28;19946;-89
2022/04/24 07:37:37;;;;;;;;;;;13.70;75.60;;;;;;5074280;28;19982;-89
2022/04/24 07:40:04;;;;;;;;;;;13.90;76.40;;;;;;5073842;28;19962;-89
2022/04/24 07:42:30;;;;;;;;;;;13.90;73.30;;;;;;5074016;28;20403;-89
2022/04/24 07:44:55;;;;;;;;;;;14.00;73.10;;;;;;5074091;28;19947;-88
2022/04/24 07:47:21;;;;;;;;;;;14.00;73.70;;;;;;5076694;28;19953;-89
2022/04/24 07:49:46;;;;;;;;;;;14.10;73.50;;;;;;5093740;28;19937;-89
2022/04/24 07:52:12;;;;;;;;;;;14.20;72.50;;;;;;5072391;28;19978;-89
2022/04/24 07:54:38;;;;;;;;;;;14.20;71.10;;;;;;5074052;28;20016;-89
2022/04/24 07:57:05;;;;;;;;;;;14.30;71.30;;;;;;5092333;28;19947;-89
2022/04/24 07:59:30;;;;;;;;;;;14.30;70.10;;;;;;5079012;28;20308;-89
2022/04/24 08:01:56;;;;;;;;;;;14.30;71.40;;;;;;5073434;28;19952;-89
2022/04/24 08:04:21;;;;;;;;;;;14.30;68.80;;;;;;5073612;28;20380;-88
2022/04/24 08:06:48;;;;;;;;;;;14.30;70.20;;;;;;5073732;28;19952;-88
2022/04/24 08:09:13;;;;;;;;;;;14.30;69.50;;;;;;5073451;28;20000;-89
2022/04/24 08:11:39;;;;;;;;;;;14.30;69.40;;;;;;5075813;28;20230;-88
2022/04/24 08:14:04;;;;;;;;;;;14.20;69.30;;;;;;5074549;28;20030;-89
2022/04/24 08:16:30;;;;;;;;;;;14.20;68.20;;;;;;5091865;28;19961;-89
2022/04/24 08:19:00;;;;;;;;;;;14.10;69.00;;;;;;5090425;28;19986;-89
2022/04/24 08:21:26;;;;;;;;;;;14.10;68.20;;;;;;5073604;28;19949;-89
2022/04/24 08:23:51;;;;;;;;;;;14.10;69.10;;;;;;5092638;28;19947;-88
2022/04/24 08:26:18;;;;;;;;;;;14.10;69.30;;;;;;5091562;28;19989;-89
2022/04/24 08:28:44;;;;;;;;;;;14.10;69.60;;;;;;5091964;28;19945;-88
2022/04/24 08:31:09;;;;;;;;;;;14.20;70.10;;;;;;5073475;28;20115;-89
2022/04/24 08:33:35;;;;;;;;;;;14.20;70.00;;;;;;5090398;28;20031;-89
2022/04/24 08:36:01;;;;;;;;;;;14.20;69.20;;;;;;5093454;28;20573;-89
2022/04/24 08:38:26;;;;;;;;;;;14.30;69.60;;;;;;5093388;28;20021;-89
2022/04/24 08:40:52;;;;;;;;;;;14.40;70.90;;;;;;5074255;28;20048;-89
2022/04/24 08:43:18;;;;;;;;;;;14.40;69.20;;;;;;5092726;28;19946;-89
2022/04/24 08:45:46;;;;;;;;;;;14.30;70.70;;;;;;5075576;28;19960;-89
2022/04/24 08:48:11;;;;;;;;;;;14.10;70.80;;;;;;5073085;28;20507;-89
2022/04/24 08:50:37;;;;;;;;;;;14.10;72.00;;;;;;5073011;28;19955;-89
2022/04/24 08:53:03;;;;;;;;;;;13.90;72.10;;;;;;5072852;28;20357;-89
2022/04/24 08:55:32;;;;;;;;;;;13.90;74.50;;;;;;5073142;28;20405;-89
2022/04/24 08:57:58;;;;;;;;;;;13.90;74.90;;;;;;5087793;28;19945;-89
2022/04/24 09:00:25;;;;;;;;;;;13.80;74.20;;;;;;5078626;28;19951;-88
2022/04/24 09:02:51;;;;;;;;;;;13.60;72.80;;;;;;5072961;28;20028;-88
2022/04/24 09:05:16;;;;;;;;;;;13.60;74.70;;;;;;5072952;28;19987;-89
2022/04/24 09:07:46;;;;;;;;;;;13.60;76.90;;;;;;5072912;28;20424;-89
2022/04/24 09:10:12;;;;;;;;;;;13.60;75.20;;;;;;5072761;28;19994;-89
2022/04/24 09:12:39;;;;;;;;;;;13.60;74.10;;;;;;5077047;28;20459;-89
2022/04/24 09:15:05;;;;;;;;;;;13.70;75.40;;;;;;5079483;28;19952;-88
2022/04/24 09:17:35;;;;;;;;;;;13.80;73.30;;;;;;5092986;28;20311;-89
2022/04/24 09:20:01;;;;;;;;;;;13.80;73.50;;;;;;5082196;28;19955;-89
2022/04/24 09:22:26;;;;;;;;;;;13.90;74.70;;;;;;5080890;28;19944;-89
2022/04/24 09:24:55;;;;;;;;;;;14.10;71.90;;;;;;5091488;28;19983;-89
2022/04/24 09:27:25;;;;;;;;;;;14.30;74.50;;;;;;5072864;28;19940;-89
2022/04/24 09:29:55;;;;;;;;;;;14.30;73.90;;;;;;5072745;28;19955;-89
2022/04/24 09:32:21;;;;;;;;;;;14.30;71.60;;;;;;5072642;28;19997;-88
2022/04/24 09:34:47;;;;;;;;;;;14.30;72.20;;;;;;5072654;28;19978;-89
2022/04/24 09:37:13;;;;;;;;;;;14.30;72.80;;;;;;5072612;28;19943;-89
2022/04/24 09:39:38;;;;;;;;;;;14.10;72.20;;;;;;5074764;28;19950;-88
2022/04/24 09:42:05;;;;;;;;;;;14.00;73.50;;;;;;5083417;28;20429;-89
2022/04/24 09:44:46;;;;;;;;;;;14.00;74.60;;;;;;5096598;28;19939;-88
2022/04/24 09:47:12;;;;;;;;;;;14.10;73.40;;;;;;5096825;28;20012;-89
2022/04/24 09:49:41;;;;;;;;;;;14.40;74.80;;;;;;5088499;28;19956;-89
2022/04/24 09:52:14;;;;;;;;;;;14.70;73.30;;;;;;5076120;28;19983;-89
2022/04/24 09:54:41;;;;;;;;;;;14.70;74.80;;;;;;5082631;28;20088;-88
2022/04/24 09:57:10;;;;;;;;;;;14.40;74.70;;;;;;5076538;28;19964;-89
2022/04/24 09:59:37;;;;;;;;;;;14.30;74.40;;;;;;5084606;28;19953;-88
2022/04/24 10:02:03;;;;;;;;;;;14.20;75.20;;;;;;5088395;28;19961;-89
2022/04/24 10:04:29;;;;;;;;;;;14.10;72.50;;;;;;5092396;28;20291;-89
2022/04/24 10:06:54;;;;;;;;;;;14.00;74.00;;;;;;5088259;28;20024;-89
2022/04/24 10:09:20;;;;;;;;;;;14.10;70.60;;;;;;5082382;28;20063;-89
2022/04/24 10:11:46;;;;;;;;;;;14.00;71.90;;;;;;5082737;28;19947;-88
2022/04/24 10:14:13;;;;;;;;;;;14.00;72.50;;;;;;5092890;28;20427;-89
2022/04/24 10:16:57;;;;;;;;;;;13.80;72.60;;;;;;5094309;28;19944;-88
2022/04/24 10:19:41;;;;;;;;;;;13.60;70.40;;;;;;5095953;28;19946;-89
2022/04/24 10:22:13;;;;;;;;;;;13.50;74.30;;;;;;5095882;28;20033;-89
2022/04/24 10:24:40;;;;;;;;;;;13.40;75.00;;;;;;5092897;28;19944;-89
2022/04/24 10:27:07;;;;;;;;;;;13.30;75.90;;;;;;5075520;28;20410;-88
2022/04/24 10:29:32;;;;;;;;;;;13.30;75.60;;;;;;5075510;28;19941;-89
2022/04/24 10:31:59;;;;;;;;;;;13.20;76.30;;;;;;5076439;28;19961;-89
2022/04/24 10:34:26;;;;;;;;;;;13.10;77.40;;;;;;5095587;28;19993;-88
2022/04/24 10:37:02;;;;;;;;;;;12.90;77.10;;;;;;5095545;28;19946;-89
2022/04/24 10:39:33;;;;;;;;;;;12.80;79.80;;;;;;5095476;28;20378;-88
2022/04/24 10:42:12;;;;;;;;;;;12.50;81.00;;;;;;5076570;28;20399;-89
2022/04/24 10:44:51;;;;;;;;;;;12.20;81.30;;;;;;5075266;28;20401;-88
2022/04/24 10:47:16;;;;;;;;;;;11.90;83.30;;;;;;5076205;28;19979;-89
2022/04/24 10:49:42;;;;;;;;;;;11.80;85.50;;;;;;5079655;28;19985;-89
2022/04/24 10:52:07;;;;;;;;;;;11.50;85.50;;;;;;5095079;28;19990;-89
2022/04/24 10:54:34;;;;;;;;;;;11.40;85.80;;;;;;5095282;28;19943;-89
2022/04/24 10:57:00;;;;;;;;;;;11.40;87.10;;;;;;5093444;28;20055;-89
2022/04/24 10:59:26;;;;;;;;;;;11.50;87.30;;;;;;5095428;28;19953;-89
2022/04/24 11:01:53;;;;;;;;;;;11.70;86.70;;;;;;5095113;28;19939;-89
2022/04/24 11:04:19;;;;;;;;;;;12.00;87.60;;;;;;5095075;28;19942;-88
2022/04/24 11:06:55;;;;;;;;;;;12.20;85.90;;;;;;5079070;28;19990;-89
2022/04/24 11:09:21;;;;;;;;;;;12.20;84.90;;;;;;5074626;28;19960;-89
2022/04/24 11:11:51;;;;;;;;;;;12.30;86.50;;;;;;5090640;28;20351;-89
2022/04/24 11:14:20;;;;;;;;;;;12.50;83.50;;;;;;5094890;28;20445;-89
2022/04/24 11:16:59;;;;;;;;;;;12.60;83.40;;;;;;5079391;28;19959;-89
2022/04/24 11:19:37;;;;;;;;;;;12.80;81.30;;;;;;5093714;28;19948;-89
2022/04/24 11:22:04;;;;;;;;;;;12.70;80.70;;;;;;5094766;28;20450;-89
2022/04/24 11:24:31;;;;;;;;;;;12.80;82.30;;;;;;5094692;28;20078;-89
2022/04/24 11:27:00;;;;;;;;;;;13.00;80.00;;;;;;5077781;28;19956;-89
2022/04/24 11:29:26;;;;;;;;;;;13.30;78.30;;;;;;5074324;28;20005;-88
2022/04/24 11:31:52;;;;;;;;;;;13.70;78.50;;;;;;5075164;28;20444;-90
2022/04/24 11:34:19;;;;;;;;;;;13.80;78.70;;;;;;5074240;28;19992;-89
2022/04/24 11:36:45;;;;;;;;;;;13.80;78.00;;;;;;5074414;28;19945;-89
2022/04/24 11:39:10;;;;;;;;;;;13.90;78.40;;;;;;5074076;28;19939;-89
2022/04/24 11:41:36;;;;;;;;;;;13.90;75.80;;;;;;5085420;28;19956;-89
2022/04/24 11:44:02;;;;;;;;;;;14.10;74.50;;;;;;5092595;28;19949;-89
2022/04/24 11:51:59;;;;;;;;;;;14.50;76.90;;;;;;5079080;28;20077;-89
2022/04/24 11:54:24;;;;;;;;;;;14.60;74.00;;;;;;5073829;28;19999;-89
2022/04/24 11:56:50;;;;;;;;;;;14.80;74.60;;;;;;5085058;28;19951;-89
2022/04/24 11:59:19;;;;;;;;;;;14.90;74.80;;;;;;5087115;28;19944;-88
2022/04/24 12:01:55;;;;;;;;;;;14.80;72.20;;;;;;5073110;28;19942;-89
2022/04/24 12:04:21;;;;;;;;;;;14.80;75.90;;;;;;5073593;28;19947;-89
2022/04/24 12:06:48;;;;;;;;;;;15.30;71.30;;;;;;5073883;28;20026;-89
2022/04/24 12:09:14;;;;;;;;;;;15.50;70.90;;;;;;5074954;28;19958;-89
2022/04/24 12:11:40;;;;;;;;;;;15.40;71.70;;;;;;5084229;28;19952;-89
2022/04/24 12:14:13;;;;;;;;;;;15.60;70.50;;;;;;5073521;28;20023;-89
2022/04/24 12:16:40;;;;;;;;;;;15.80;70.50;;;;;;5073999;28;19941;-89
2022/04/24 12:19:06;;;;;;;;;;;15.80;70.50;;;;;;5073774;28;19999;-89
2022/04/24 12:21:32;;;;;;;;;;;15.50;69.50;;;;;;5073435;28;19944;-89
2022/04/24 12:23:58;;;;;;;;;;;15.20;70.70;;;;;;5073445;28;20031;-89
2022/04/24 12:26:24;;;;;;;;;;;15.30;69.90;;;;;;5073366;28;19965;-90
2022/04/24 12:28:50;;;;;;;;;;;15.70;68.20;;;;;;5090242;28;19988;-89
2022/04/24 12:31:22;;;;;;;;;;;16.40;69.90;;;;;;5051937;28;20356;-89
2022/04/24 12:33:49;;;;;;;;;;;16.10;66.40;;;;;;5084714;28;20010;-89
2022/04/24 12:36:15;;;;;;;;;;;15.90;67.20;;;;;;5093401;28;20063;-89
2022/04/24 12:38:41;;;;;;;;;;;16.10;69.00;;;;;;5075795;28;20003;-89
2022/04/24 12:41:10;;;;;;;;;;;16.60;64.60;;;;;;5073208;28;19943;-89
2022/04/24 12:43:36;;;;;;;;;;;16.50;64.00;;;;;;5073166;28;19981;-89
2022/04/24 12:46:02;;;;;;;;;;;16.60;65.20;;;;;;5073449;28;19981;-89
2022/04/24 12:48:28;;;;;;;;;;;17.10;64.50;;;;;;5074210;28;19939;-89
2022/04/24 12:50:54;;;;;;;;;;;17.20;60.00;;;;;;5073074;28;19944;-89
2022/04/24 12:53:20;;;;;;;;;;;17.80;58.30;;;;;;5079798;22;19982;-89
2022/04/24 12:55:46;;;;;;;;;;;18.10;57.70;;;;;;5072439;28;20412;-89
2022/04/24 12:58:14;;;;;;;;;;;18.30;60.90;;;;;;5073027;28;19950;-89
2022/04/24 13:00:44;;;;;;;;;;;17.90;61.40;;;;;;5072961;28;19948;-89
2022/04/24 13:03:10;;;;;;;;;;;17.90;59.40;;;;;;5072616;28;19953;-89
2022/04/24 13:05:37;;;;;;;;;;;17.30;61.70;;;;;;5072918;28;20019;-89
2022/04/24 13:08:04;;;;;;;;;;;16.90;59.50;;;;;;5072904;28;19942;-89
2022/04/24 13:10:29;;;;;;;;;;;17.30;59.70;;;;;;5090542;28;20050;-89
2022/04/24 13:13:01;;;;;;;;;;;18.00;59.50;;;;;;5093036;28;20404;-89
2022/04/24 13:15:26;;;;;;;;;;;18.60;58.40;;;;;;5096721;28;20389;-89
2022/04/24 13:18:07;;;;;;;;;;;19.30;58.10;;;;;;5096817;28;19946;-89
2022/04/24 13:20:36;;;;;;;;;;;20.00;54.20;;;;;;5097307;28;19966;-89
2022/04/24 13:23:06;;;;;;;;;;;21.20;50.50;;;;;;5095742;28;19942;-90
2022/04/24 13:25:32;;;;;;;;;;;22.20;46.40;;;;;;5096979;28;19953;-90
2022/04/24 13:27:58;;;;;;;;;;;23.40;43.80;;;;;;5096284;28;19954;-90
2022/04/24 13:30:23;;;;;;;;;;;22.80;45.90;;;;;;5096701;28;19940;-90
2022/04/24 13:32:49;;;;;;;;;;;22.50;45.90;;;;;;5095964;28;20441;-89
2022/04/24 13:35:15;;;;;;;;;;;21.60;47.90;;;;;;5095782;28;19941;-89
2022/04/24 13:40:25;;;;;;;;;;;21.90;45.80;;;;;;5097006;28;19946;-90
2022/04/24 13:42:51;;;;;;;;;;;22.80;46.40;;;;;;5096311;28;20247;-90
2022/04/24 13:45:17;;;;;;;;;;;22.10;48.90;;;;;;5096902;28;19938;-90
2022/04/24 13:47:42;;;;;;;;;;;21.90;48.30;;;;;;5096328;28;20407;-90
2022/04/24 13:50:08;;;;;;;;;;;20.90;47.10;;;;;;5096514;28;19941;-90
2022/04/24 13:52:34;;;;;;;;;;;20.30;48.40;;;;;;5096188;28;19978;-90
2022/04/24 13:55:00;;;;;;;;;;;19.60;51.00;;;;;;5095340;28;19950;-90
2022/04/24 13:57:25;;;;;;;;;;;19.70;51.30;;;;;;5096375;28;19990;-90
2022/04/24 13:59:51;;;;;;;;;;;20.80;53.80;;;;;;5096558;28;19944;-89
2022/04/24 14:02:16;;;;;;;;;;;21.90;47.70;;;;;;5096303;28;19937;-90
2022/04/24 14:04:42;;;;;;;;;;;22.10;48.60;;;;;;5096192;28;19950;-90
2022/04/24 14:07:08;;;;;;;;;;;21.70;48.60;;;;;;5096163;28;20439;-90
2022/04/24 14:09:35;;;;;;;;;;;21.20;49.10;;;;;;5096062;28;19957;-90
2022/04/24 14:12:01;;;;;;;;;;;21.20;51.80;;;;;;5096005;28;19992;-90
2022/04/24 14:14:26;;;;;;;;;;;22.00;48.00;;;;;;5094210;28;20440;-90
2022/04/24 14:16:52;;;;;;;;;;;22.10;48.70;;;;;;5095952;28;19944;-90
2022/04/24 14:19:18;;;;;;;;;;;22.10;46.10;;;;;;5095886;28;20315;-90
2022/04/24 14:21:43;;;;;;;;;;;23.20;45.50;;;;;;5095855;28;19941;-90
2022/04/24 14:24:09;;;;;;;;;;;24.50;41.50;;;;;;5095313;28;19951;-91